createdAt,value
2019-05-29T00:02:01.371Z,99.90
2019-05-29T00:04:29.767Z,99.90
2019-05-29T00:06:58.156Z,99.90
2019-05-29T00:09:27.001Z,99.90
2019-05-29T00:11:55.406Z,99.90
2019-05-29T00:14:27.453Z,99.90
2019-05-29T00:16:53.875Z,99.90
2019-05-29T00:19:22.264Z,99.90
2019-05-29T00:21:50.635Z,99.90
2019-05-29T00:24:19.018Z,99.90
2019-05-29T00:26:47.400Z,99.90
2019-05-29T00:29:15.783Z,99.90
2019-05-29T00:31:44.167Z,99.90
2019-05-29T00:34:13.049Z,99.90
2019-05-29T00:36:41.499Z,99.90
2019-05-29T00:39:10.648Z,99.90
2019-05-29T00:41:39.035Z,99.90
2019-05-29T00:44:07.423Z,99.90
2019-05-29T00:46:35.800Z,99.90
2019-05-29T00:49:04.259Z,99.90
2019-05-29T00:51:32.694Z,99.90
2019-05-29T00:54:01.082Z,99.90
2019-05-29T00:56:29.463Z,99.90
2019-05-29T00:58:57.861Z,99.90
2019-05-29T01:01:26.237Z,99.90
2019-05-29T01:03:54.607Z,99.90
2019-05-29T01:06:22.996Z,99.90
2019-05-29T01:08:51.371Z,99.90
2019-05-29T01:11:20.889Z,99.90
2019-05-29T01:13:49.407Z,99.90
2019-05-29T01:16:17.783Z,99.90
2019-05-29T01:18:46.171Z,99.90
2019-05-29T01:21:14.546Z,99.90
2019-05-29T01:23:42.935Z,99.90
2019-05-29T01:26:12.443Z,99.90
2019-05-29T01:28:40.984Z,99.90
2019-05-29T01:31:09.355Z,99.90
2019-05-29T01:33:37.735Z,99.90
2019-05-29T01:36:06.121Z,99.90
2019-05-29T01:38:34.496Z,99.90
2019-05-29T01:41:02.885Z,99.90
2019-05-29T01:43:31.267Z,99.90
2019-05-29T01:45:59.654Z,99.90
2019-05-29T01:48:28.043Z,99.90
2019-05-29T01:50:56.419Z,99.90
2019-05-29T01:53:24.790Z,99.90
2019-05-29T01:55:53.178Z,99.90
2019-05-29T01:58:21.993Z,99.90
2019-05-29T02:00:50.904Z,99.90
2019-05-29T02:03:19.856Z,99.90
2019-05-29T02:05:48.348Z,99.90
2019-05-29T02:08:17.942Z,99.90
2019-05-29T02:10:46.500Z,99.90
2019-05-29T02:13:15.212Z,99.90
2019-05-29T02:15:43.739Z,99.90
2019-05-29T02:18:12.111Z,99.90
2019-05-29T02:20:40.496Z,99.90
2019-05-29T02:23:08.867Z,99.90
2019-05-29T02:25:37.254Z,99.90
2019-05-29T02:28:05.644Z,99.90
2019-05-29T02:30:34.034Z,99.90
2019-05-29T02:33:02.406Z,99.90
2019-05-29T02:35:30.793Z,99.90
2019-05-29T02:37:59.178Z,99.90
2019-05-29T02:40:29.475Z,99.90
2019-05-29T02:42:57.675Z,99.90
2019-05-29T02:45:48.134Z,99.90
2019-05-29T02:47:56.168Z,99.90
2019-05-29T02:50:26.179Z,99.90
2019-05-29T02:52:54.674Z,99.90
2019-05-29T02:55:24.366Z,99.90
2019-05-29T02:57:52.987Z,99.90
2019-05-29T03:00:25.723Z,99.90
2019-05-29T03:02:54.544Z,99.90
2019-05-29T03:05:23.841Z,99.90
2019-05-29T03:07:52.366Z,99.90
2019-05-29T03:10:22.470Z,99.90
2019-05-29T03:12:51.041Z,99.90
2019-05-29T03:15:19.412Z,99.90
2019-05-29T03:17:47.807Z,99.90
2019-05-29T03:20:17.152Z,99.90
2019-05-29T03:22:45.544Z,99.90
2019-05-29T03:25:13.920Z,99.90
2019-05-29T03:27:42.297Z,99.90
2019-05-29T03:30:10.828Z,99.90
2019-05-29T03:32:47.222Z,99.90
2019-05-29T03:35:09.364Z,99.90
2019-05-29T03:37:38.750Z,99.90
2019-05-29T03:40:07.788Z,99.90
2019-05-29T03:42:36.156Z,99.90
2019-05-29T03:45:05.886Z,99.90
2019-05-29T03:47:35.127Z,99.90
2019-05-29T03:50:05.772Z,99.90
2019-05-29T03:52:34.815Z,99.90
2019-05-29T03:55:05.258Z,99.90
2019-05-29T03:57:33.973Z,99.90
2019-05-29T04:00:05.980Z,99.90
2019-05-29T04:02:35.551Z,99.90
2019-05-29T04:05:06.225Z,99.90
2019-05-29T04:07:35.614Z,99.90
2019-05-29T04:10:07.670Z,99.90
2019-05-29T04:12:37.789Z,99.90
2019-05-29T04:15:07.148Z,99.90
2019-05-29T04:17:37.906Z,99.90
2019-05-29T04:20:07.141Z,99.90
2019-05-29T04:22:38.597Z,99.90
2019-05-29T04:25:07.724Z,99.90
2019-05-29T04:27:38.473Z,99.90
2019-05-29T04:30:08.439Z,99.90
2019-05-29T04:32:38.483Z,99.90
2019-05-29T04:35:07.331Z,99.90
2019-05-29T04:37:36.979Z,99.90
2019-05-29T04:40:07.060Z,99.90
2019-05-29T04:42:37.366Z,99.90
2019-05-29T04:45:07.668Z,99.90
2019-05-29T04:47:37.357Z,99.90
2019-05-29T04:50:07.143Z,99.90
2019-05-29T04:52:35.964Z,99.90
2019-05-29T04:55:06.667Z,99.90
2019-05-29T04:57:35.042Z,99.90
2019-05-29T05:00:04.303Z,99.90
2019-05-29T05:02:33.017Z,99.90
2019-05-29T05:05:01.643Z,99.90
2019-05-29T05:07:31.079Z,99.90
2019-05-29T05:09:59.593Z,99.90
2019-05-29T05:12:27.983Z,99.90
2019-05-29T05:14:56.358Z,99.90
2019-05-29T05:17:26.449Z,99.90
2019-05-29T05:19:55.192Z,99.90
2019-05-29T05:22:23.610Z,99.90
2019-05-29T05:24:51.972Z,99.90
2019-05-29T05:27:20.359Z,99.90
2019-05-29T05:29:48.738Z,99.90
2019-05-29T05:32:17.138Z,99.90
2019-05-29T05:34:45.500Z,99.90
2019-05-29T05:37:13.883Z,99.90
2019-05-29T05:39:42.305Z,99.90
2019-05-29T05:42:10.671Z,99.90
2019-05-29T05:44:39.133Z,99.90
2019-05-29T05:47:07.512Z,99.90
2019-05-29T05:49:35.901Z,99.90
2019-05-29T05:52:04.282Z,99.90
2019-05-29T05:54:33.371Z,99.90
2019-05-29T05:57:01.824Z,99.90
2019-05-29T05:59:31.487Z,99.90
2019-05-29T06:02:00.344Z,99.90
2019-05-29T06:04:28.719Z,99.90
2019-05-29T06:06:57.104Z,99.90
2019-05-29T06:09:25.537Z,99.90
2019-05-29T06:11:53.952Z,99.90
2019-05-29T06:14:22.336Z,99.90
2019-05-29T06:16:50.730Z,99.90
2019-05-29T06:19:19.110Z,99.90
2019-05-29T06:21:47.488Z,99.90
2019-05-29T06:24:15.884Z,99.90
2019-05-29T06:26:44.264Z,99.90
2019-05-29T06:29:12.653Z,99.90
2019-05-29T06:31:41.422Z,99.90
2019-05-29T06:34:10.132Z,99.90
2019-05-29T06:36:39.622Z,99.90
2019-05-29T06:39:08.163Z,99.90
2019-05-29T06:41:37.736Z,99.90
2019-05-29T06:44:06.220Z,99.90
2019-05-29T06:46:36.174Z,99.90
2019-05-29T06:49:04.708Z,99.80
2019-05-29T06:51:33.084Z,98.40
2019-05-29T06:54:01.462Z,95.90
2019-05-29T06:56:29.855Z,95.60
2019-05-29T06:58:58.223Z,94.20
2019-05-29T07:01:26.599Z,91.70
2019-05-29T07:04:10.584Z,91.10
2019-05-29T07:06:25.415Z,84.10
2019-05-29T07:08:53.802Z,82.20
2019-05-29T07:11:22.174Z,79.60
2019-05-29T07:13:51.053Z,75.70
2019-05-29T07:16:19.516Z,78.30
2019-05-29T07:19:22.891Z,68.90
2019-05-29T07:21:18.023Z,75.60
2019-05-29T07:23:48.145Z,74.30
2019-05-29T07:26:16.510Z,68.30
2019-05-29T07:29:02.042Z,74.20
2019-05-29T07:31:15.021Z,80.80
2019-05-29T07:33:43.396Z,67.20
2019-05-29T07:36:11.787Z,60.70
2019-05-29T07:38:44.388Z,60.80
2019-05-29T07:41:10.604Z,64.40
2019-05-29T07:43:39.667Z,63.40
2019-05-29T07:46:08.136Z,62.50
2019-05-29T07:48:36.507Z,58.40
2019-05-29T07:51:07.276Z,58.50
2019-05-29T07:53:34.985Z,56.20
2019-05-29T07:56:03.375Z,55.30
2019-05-29T07:58:31.748Z,54.70
2019-05-29T08:01:11.697Z,55.90
2019-05-29T08:03:30.240Z,54.90
2019-05-29T08:05:58.611Z,55.90
2019-05-29T08:08:27.258Z,55.10
2019-05-29T08:10:55.631Z,53.60
2019-05-29T08:13:24.012Z,52.80
2019-05-29T08:16:02.362Z,47.70
2019-05-29T08:18:22.493Z,46.70
2019-05-29T08:20:50.875Z,47.70
2019-05-29T08:23:19.253Z,48.80
2019-05-29T08:25:47.759Z,47.40
2019-05-29T08:28:16.192Z,48.60
2019-05-29T08:30:48.367Z,50.20
2019-05-29T08:33:14.676Z,45.00
2019-05-29T08:35:43.149Z,44.40
2019-05-29T08:38:11.607Z,43.20
2019-05-29T08:40:40.974Z,41.40
2019-05-29T08:43:09.449Z,40.50
2019-05-29T08:45:37.836Z,39.00
2019-05-29T08:48:06.226Z,36.20
2019-05-29T08:50:34.624Z,37.00
2019-05-29T08:53:02.979Z,36.60
2019-05-29T08:55:31.363Z,34.80
2019-05-29T08:57:59.739Z,34.00
2019-05-29T09:00:28.258Z,33.40
2019-05-29T09:02:56.640Z,32.70
2019-05-29T09:05:25.106Z,34.50
2019-05-29T09:07:54.346Z,38.30
2019-05-29T09:10:22.948Z,39.80
2019-05-29T09:13:02.039Z,36.50
2019-05-29T09:15:22.032Z,37.40
2019-05-29T09:17:50.555Z,37.50
2019-05-29T09:20:32.038Z,33.50
2019-05-29T09:22:49.777Z,32.70
2019-05-29T09:25:19.114Z,34.40
2019-05-29T09:27:47.654Z,34.20
2019-05-29T09:30:17.126Z,33.00
2019-05-29T09:32:50.800Z,33.80
2019-05-29T09:35:18.416Z,34.60
2019-05-29T09:37:46.667Z,33.90
2019-05-29T09:40:19.221Z,34.20
2019-05-29T09:42:47.658Z,32.40
2019-05-29T09:45:16.604Z,32.10
2019-05-29T09:47:46.232Z,31.70
2019-05-29T09:50:15.619Z,32.80
2019-05-29T09:52:45.466Z,30.90
2019-05-29T09:55:13.974Z,30.70
2019-05-29T09:57:42.344Z,31.00
2019-05-29T10:00:11.377Z,31.20
2019-05-29T10:02:39.760Z,29.00
2019-05-29T10:05:09.475Z,28.80
2019-05-29T10:07:38.599Z,29.00
2019-05-29T10:10:12.741Z,29.60
2019-05-29T10:12:41.171Z,29.60
2019-05-29T10:15:11.904Z,30.00
2019-05-29T10:17:40.285Z,30.00
2019-05-29T10:20:11.312Z,30.00
2019-05-29T10:22:39.760Z,30.20
2019-05-29T10:25:08.875Z,29.10
2019-05-29T10:27:37.259Z,28.60
2019-05-29T10:30:06.975Z,29.40
2019-05-29T10:32:35.372Z,28.80
2019-05-29T10:35:04.504Z,28.80
2019-05-29T10:37:32.885Z,29.90
2019-05-29T10:40:01.261Z,29.50
2019-05-29T10:42:29.647Z,29.40
2019-05-29T10:44:58.023Z,29.90
2019-05-29T10:47:26.396Z,30.00
2019-05-29T10:49:54.775Z,29.10
2019-05-29T10:52:23.429Z,29.30
2019-05-29T10:54:52.460Z,28.30
2019-05-29T10:57:21.003Z,29.50
2019-05-29T10:59:49.372Z,29.50
2019-05-29T11:02:17.760Z,29.70
2019-05-29T11:04:50.356Z,29.70
2019-05-29T11:07:16.341Z,30.10
2019-05-29T11:09:45.579Z,29.50
2019-05-29T11:12:14.877Z,29.20
2019-05-29T11:14:43.266Z,29.60
2019-05-29T11:17:11.641Z,29.90
2019-05-29T11:19:40.020Z,29.70
2019-05-29T11:22:25.315Z,30.50
2019-05-29T11:24:38.560Z,29.00
2019-05-29T11:27:06.928Z,30.20
2019-05-29T11:29:35.321Z,31.40
2019-05-29T11:32:03.701Z,32.10
2019-05-29T11:34:32.077Z,31.00
2019-05-29T11:37:00.784Z,30.80
2019-05-29T11:39:29.163Z,30.10
2019-05-29T11:41:57.531Z,31.00
2019-05-29T11:44:25.928Z,29.50
2019-05-29T11:46:54.399Z,29.20
2019-05-29T11:49:23.131Z,29.00
2019-05-29T11:51:51.687Z,28.80
2019-05-29T11:54:20.252Z,28.10
2019-05-29T11:56:48.637Z,28.20
2019-05-29T11:59:17.008Z,28.40
2019-05-29T12:01:50.264Z,28.00
2019-05-29T12:04:25.852Z,29.00
2019-05-29T12:06:45.585Z,28.00
2019-05-29T12:09:29.030Z,29.20
2019-05-29T12:11:44.432Z,27.60
2019-05-29T12:14:12.815Z,28.40
2019-05-29T12:16:41.188Z,27.60
2019-05-29T12:19:09.572Z,28.40
2019-05-29T12:21:42.383Z,29.40
2019-05-29T12:24:08.055Z,29.60
2019-05-29T12:26:36.434Z,29.50
2019-05-29T12:29:11.344Z,29.10
2019-05-29T12:31:34.983Z,29.20
2019-05-29T12:34:13.355Z,30.00
2019-05-29T12:36:33.478Z,30.50
2019-05-29T12:39:02.712Z,33.00
2019-05-29T12:41:32.206Z,36.80
2019-05-29T12:44:01.619Z,39.10
2019-05-29T12:46:30.234Z,37.50
2019-05-29T12:48:59.515Z,37.60
2019-05-29T12:51:27.974Z,34.60
2019-05-29T12:53:56.345Z,31.90
2019-05-29T12:56:24.738Z,31.90
2019-05-29T12:58:54.153Z,29.80
2019-05-29T13:01:22.759Z,29.90
2019-05-29T13:03:51.135Z,32.10
2019-05-29T13:06:19.519Z,31.00
2019-05-29T13:08:47.888Z,33.60
2019-05-29T13:11:16.263Z,32.80
2019-05-29T13:13:44.931Z,31.60
2019-05-29T13:16:13.306Z,31.60
2019-05-29T13:18:41.685Z,31.80
2019-05-29T13:21:10.055Z,31.30
2019-05-29T13:23:45.179Z,32.90
2019-05-29T13:26:08.545Z,32.20
2019-05-29T13:28:36.932Z,32.60
2019-05-29T13:31:06.794Z,32.00
2019-05-29T13:33:35.283Z,30.60
2019-05-29T13:36:04.554Z,32.40
2019-05-29T13:38:33.539Z,32.80
2019-05-29T13:41:02.540Z,29.70
2019-05-29T13:43:31.049Z,28.70
2019-05-29T13:46:00.390Z,27.90
2019-05-29T13:48:28.981Z,28.20
2019-05-29T13:50:57.377Z,27.60
2019-05-29T13:53:25.739Z,29.60
2019-05-29T13:55:54.113Z,28.80
2019-05-29T13:58:22.494Z,29.80
2019-05-29T14:00:52.602Z,30.90
2019-05-29T14:03:20.974Z,30.20
2019-05-29T14:05:49.356Z,30.00
2019-05-29T14:08:17.745Z,30.70
2019-05-29T14:10:46.132Z,29.80
2019-05-29T14:13:14.517Z,29.60
2019-05-29T14:15:42.897Z,31.00
2019-05-29T14:18:11.288Z,32.10
2019-05-29T14:20:39.665Z,33.90
2019-05-29T14:23:09.447Z,33.00
2019-05-29T14:25:38.080Z,33.80
2019-05-29T14:28:06.816Z,32.10
2019-05-29T14:30:35.408Z,30.90
2019-05-29T14:33:04.409Z,30.60
2019-05-29T14:35:32.942Z,29.70
2019-05-29T14:38:01.423Z,30.20
2019-05-29T14:40:29.857Z,30.30
2019-05-29T14:42:58.244Z,29.60
2019-05-29T14:45:26.616Z,29.80
2019-05-29T14:47:54.984Z,28.70
2019-05-29T14:50:23.367Z,29.20
2019-05-29T14:52:51.748Z,29.20
2019-05-29T14:55:20.368Z,28.20
2019-05-29T14:57:49.073Z,29.90
2019-05-29T15:00:24.805Z,30.80
2019-05-29T15:02:48.388Z,30.90
2019-05-29T15:05:17.305Z,30.60
2019-05-29T15:07:46.252Z,30.40
2019-05-29T15:10:25.127Z,31.40
2019-05-29T15:12:45.197Z,32.90
2019-05-29T15:15:16.533Z,31.40
2019-05-29T15:17:44.417Z,30.90
2019-05-29T15:20:16.786Z,31.10
2019-05-29T15:22:44.749Z,31.60
2019-05-29T15:25:21.046Z,31.80
2019-05-29T15:27:43.755Z,30.50
2019-05-29T15:30:17.750Z,29.10
2019-05-29T15:32:42.391Z,28.50
2019-05-29T15:35:14.893Z,29.60
2019-05-29T15:37:41.695Z,29.90
2019-05-29T15:40:12.910Z,29.40
2019-05-29T15:42:41.460Z,28.40
2019-05-29T15:45:12.161Z,29.30
2019-05-29T15:47:40.536Z,29.20
2019-05-29T15:50:11.479Z,29.20
2019-05-29T15:52:40.102Z,28.30
2019-05-29T15:55:21.289Z,29.20
2019-05-29T15:57:39.413Z,28.00
2019-05-29T16:00:11.363Z,28.50
2019-05-29T16:02:40.427Z,27.50
2019-05-29T16:05:11.348Z,26.80
2019-05-29T16:07:40.171Z,26.90
2019-05-29T16:10:13.052Z,26.00
2019-05-29T16:12:39.805Z,26.50
2019-05-29T16:15:11.048Z,26.60
2019-05-29T16:17:39.685Z,26.60
2019-05-29T16:20:12.363Z,26.50
2019-05-29T16:22:41.193Z,27.20
2019-05-29T16:25:10.786Z,27.10
2019-05-29T16:27:39.274Z,28.00
2019-05-29T16:30:09.588Z,28.40
2019-05-29T16:32:37.972Z,28.80
2019-05-29T16:35:07.187Z,29.60
2019-05-29T16:37:35.569Z,31.10
2019-05-29T16:40:07.480Z,32.40
2019-05-29T16:42:35.868Z,31.40
2019-05-29T16:45:06.947Z,31.00
2019-05-29T16:47:35.335Z,31.00
2019-05-29T16:50:08.292Z,31.50
2019-05-29T16:52:37.037Z,34.60
2019-05-29T16:55:07.339Z,36.90
2019-05-29T16:57:35.723Z,37.30
2019-05-29T17:00:08.992Z,34.20
2019-05-29T17:02:37.835Z,35.00
2019-05-29T17:05:06.856Z,35.30
2019-05-29T17:07:35.240Z,39.30
2019-05-29T17:10:09.396Z,37.80
2019-05-29T17:12:37.776Z,37.40
2019-05-29T17:15:11.024Z,36.80
2019-05-29T17:17:39.468Z,35.90
2019-05-29T17:20:12.703Z,35.80
2019-05-29T17:22:41.060Z,36.50
2019-05-29T17:25:09.777Z,38.00
2019-05-29T17:27:38.157Z,38.60
2019-05-29T17:30:08.072Z,38.90
2019-05-29T17:32:36.460Z,39.00
2019-05-29T17:35:08.610Z,38.70
2019-05-29T17:37:37.287Z,37.90
2019-05-29T17:40:08.074Z,38.50
2019-05-29T17:42:36.460Z,39.80
2019-05-29T17:45:07.599Z,38.30
2019-05-29T17:47:36.215Z,40.40
2019-05-29T17:50:09.299Z,40.80
2019-05-29T17:52:37.664Z,41.20
2019-05-29T17:55:07.297Z,44.20
2019-05-29T17:57:35.683Z,44.20
2019-05-29T18:00:09.643Z,45.70
2019-05-29T18:02:51.290Z,44.30
2019-05-29T18:05:08.191Z,45.70
2019-05-29T18:07:36.555Z,45.20
2019-05-29T18:10:06.759Z,46.70
2019-05-29T18:12:35.127Z,48.10
2019-05-29T18:15:07.600Z,47.20
2019-05-29T18:17:35.982Z,48.00
2019-05-29T18:20:14.302Z,49.00
2019-05-29T18:22:40.856Z,48.90
2019-05-29T18:25:09.786Z,48.10
2019-05-29T18:27:38.150Z,48.60
2019-05-29T18:30:08.363Z,49.80
2019-05-29T18:32:37.212Z,50.20
2019-05-29T18:35:09.065Z,51.60
2019-05-29T18:37:37.480Z,52.30
2019-05-29T18:40:11.430Z,54.40
2019-05-29T18:42:37.375Z,54.00
2019-05-29T18:45:19.618Z,55.40
2019-05-29T18:47:38.527Z,56.30
2019-05-29T18:50:10.947Z,57.60
2019-05-29T18:52:39.333Z,57.80
2019-05-29T18:55:08.656Z,59.40
2019-05-29T18:57:37.031Z,60.50
2019-05-29T19:00:10.360Z,64.10
2019-05-29T19:02:38.751Z,65.70
2019-05-29T19:05:07.975Z,68.80
2019-05-29T19:07:36.348Z,71.20
2019-05-29T19:10:07.315Z,74.40
2019-05-29T19:12:36.028Z,74.50
2019-05-29T19:15:07.107Z,77.30
2019-05-29T19:17:35.496Z,79.20
2019-05-29T19:20:04.807Z,81.00
2019-05-29T19:22:33.205Z,80.80
2019-05-29T19:25:01.650Z,84.50
2019-05-29T19:27:37.694Z,85.50
2019-05-29T19:30:00.195Z,84.30
2019-05-29T19:32:29.319Z,87.90
2019-05-29T19:34:57.862Z,86.00
2019-05-29T19:37:26.228Z,86.50
2019-05-29T19:39:54.600Z,88.20
2019-05-29T19:42:23.990Z,89.40
2019-05-29T19:44:52.779Z,91.10
2019-05-29T19:47:21.167Z,92.90
2019-05-29T19:49:49.576Z,94.50
2019-05-29T19:52:17.992Z,94.70
2019-05-29T19:54:46.376Z,94.50
2019-05-29T19:57:14.752Z,94.10
2019-05-29T19:59:43.130Z,94.50
2019-05-29T20:02:11.558Z,94.00
2019-05-29T20:04:40.024Z,94.60
2019-05-29T20:07:08.424Z,95.50
2019-05-29T20:09:37.587Z,95.20
2019-05-29T20:12:06.134Z,96.40
2019-05-29T20:14:35.796Z,96.90
2019-05-29T20:17:04.382Z,97.10
2019-05-29T20:19:35.809Z,96.80
2019-05-29T20:22:02.863Z,97.20
2019-05-29T20:24:31.247Z,97.50
2019-05-29T20:26:59.628Z,97.70
2019-05-29T20:29:28.016Z,97.80
2019-05-29T20:31:56.396Z,98.20
2019-05-29T20:34:24.769Z,98.10
2019-05-29T20:36:53.151Z,98.00
2019-05-29T20:39:21.532Z,97.50
2019-05-29T20:41:49.904Z,97.10
2019-05-29T20:44:18.293Z,97.10
2019-05-29T20:46:46.667Z,97.20
2019-05-29T20:49:15.040Z,96.40
2019-05-29T20:51:43.412Z,98.10
2019-05-29T20:54:11.792Z,96.60
2019-05-29T20:56:40.166Z,96.30
2019-05-29T20:59:08.540Z,97.00
2019-05-29T21:01:40.938Z,97.30
2019-05-29T21:04:07.127Z,97.40
2019-05-29T21:06:36.536Z,98.00
2019-05-29T21:09:06.496Z,97.80
2019-05-29T21:11:35.361Z,98.20
2019-05-29T21:14:03.898Z,97.50
2019-05-29T21:16:33.632Z,97.50
2019-05-29T21:19:02.244Z,97.10
2019-05-29T21:21:30.611Z,97.20
2019-05-29T21:23:58.992Z,97.10
2019-05-29T21:26:27.363Z,97.10
2019-05-29T21:28:55.740Z,97.50
2019-05-29T21:31:24.119Z,97.40
2019-05-29T21:33:52.494Z,97.50
2019-05-29T21:36:20.854Z,97.60
2019-05-29T21:38:49.250Z,97.60
2019-05-29T21:41:17.615Z,97.10
2019-05-29T21:43:47.018Z,96.50
2019-05-29T21:46:15.556Z,96.60
2019-05-29T21:48:45.107Z,96.80
2019-05-29T21:51:13.691Z,97.40
2019-05-29T21:53:43.359Z,98.30
2019-05-29T21:56:11.819Z,99.00
2019-05-29T21:58:57.270Z,99.70
2019-05-29T22:01:10.377Z,99.90
2019-05-29T22:03:38.744Z,99.80
2019-05-29T22:06:07.123Z,99.60
2019-05-29T22:08:35.495Z,99.20
2019-05-29T22:11:03.872Z,99.20
2019-05-29T22:13:32.308Z,99.20
2019-05-29T22:16:00.951Z,99.40
2019-05-29T22:18:29.524Z,99.30
2019-05-29T22:20:58.683Z,99.30
2019-05-29T22:23:28.003Z,99.70
2019-05-29T22:25:57.383Z,99.90
2019-05-29T22:28:25.935Z,99.90
2019-05-29T22:30:55.326Z,99.90
2019-05-29T22:33:23.766Z,99.90
2019-05-29T22:35:53.896Z,99.90
2019-05-29T22:38:22.454Z,99.90
2019-05-29T22:40:52.195Z,99.90
2019-05-29T22:43:20.932Z,99.90
2019-05-29T22:45:49.576Z,99.90
2019-05-29T22:48:17.943Z,99.90
2019-05-29T22:50:46.337Z,99.70
2019-05-29T22:53:14.712Z,99.90
2019-05-29T22:55:43.100Z,99.90
2019-05-29T22:58:11.467Z,99.90
2019-05-29T23:00:39.837Z,99.90
2019-05-29T23:03:08.228Z,99.90
2019-05-29T23:05:36.606Z,99.90
2019-05-29T23:08:04.983Z,99.90
2019-05-29T23:10:33.355Z,99.90
2019-05-29T23:13:04.363Z,99.90
2019-05-29T23:15:32.132Z,99.90
2019-05-29T23:18:00.714Z,99.90
2019-05-29T23:20:29.155Z,99.90
2019-05-29T23:22:58.549Z,99.90
2019-05-29T23:25:27.111Z,99.90
2019-05-29T23:27:56.872Z,99.90
2019-05-29T23:30:25.323Z,99.90
2019-05-29T23:32:54.797Z,99.90
2019-05-29T23:35:23.355Z,99.90
2019-05-29T23:37:52.953Z,99.90
2019-05-29T23:40:21.483Z,99.90
2019-05-29T23:42:49.853Z,99.90
2019-05-29T23:45:18.219Z,99.90
2019-05-29T23:47:46.610Z,99.90
2019-05-29T23:50:15.210Z,99.90
2019-05-29T23:52:43.600Z,99.90
2019-05-29T23:55:12.337Z,99.90
2019-05-29T23:57:40.709Z,99.90
